Time;durP1;ratioP1;P1;durP2;ratioP2;P2;SDS_P1;SDS_P2;PMS_P1;PMS_P2;Temp;Humidity;BMP_temperature;BMP_pressure;BME280_temperature;BME280_humidity;BME280_pressure;Samples;Min_cycle;Max_cycle;Signal;HPM_P1;HPM_P2
2021/04/02 10:57:43;;;;;;;7.53;1.92;;;15.30;46.00;;;;;;4184658;27;20871;-51
2021/04/02 10:59:44;;;;;;;6.17;1.83;;;15.40;46.10;;;;;;4173159;28;20025;-51
2021/04/02 11:01:44;;;;;;;5.40;2.00;;;15.60;46.30;;;;;;4163251;28;20025;-48
2021/04/02 11:03:45;;;;;;;7.80;2.10;;;15.60;46.90;;;;;;4145085;28;20109;-49
2021/04/02 11:05:46;;;;;;;8.73;1.63;;;15.60;46.70;;;;;;4161457;28;20021;-49
2021/04/02 11:07:47;;;;;;;7.43;1.37;;;15.60;47.30;;;;;;4161431;28;20026;-50
2021/04/02 11:09:47;;;;;;;43.63;8.30;;;15.70;48.20;;;;;;4174134;28;20029;-50
2021/04/02 11:11:48;;;;;;;160.73;16.37;;;15.70;47.90;;;;;;4160886;28;20521;-50
2021/04/02 11:13:49;;;;;;;105.83;12.70;;;15.80;49.30;;;;;;4162387;28;20427;-51
2021/04/02 11:15:50;;;;;;;75.53;9.20;;;15.80;49.30;;;;;;4177675;28;20033;-50
2021/04/02 11:17:52;;;;;;;63.23;8.03;;;15.90;49.40;;;;;;4162514;28;20089;-50
2021/04/02 11:19:54;;;;;;;73.23;7.47;;;15.90;50.00;;;;;;4162471;28;20025;-50
2021/04/02 11:21:55;;;;;;;55.43;7.83;;;16.00;50.10;;;;;;4177394;28;20532;-50
2021/04/02 11:23:55;;;;;;;59.67;7.13;;;16.00;50.30;;;;;;4162116;28;20038;-50
2021/04/02 11:25:56;;;;;;;58.37;9.10;;;16.10;50.20;;;;;;4162284;28;20029;-53
2021/04/02 11:27:57;;;;;;;82.80;10.53;;;16.10;49.90;;;;;;4162889;28;20030;-51
2021/04/02 11:29:58;;;;;;;81.60;11.40;;;16.20;50.60;;;;;;4167561;28;20037;-52
2021/04/02 11:31:59;;;;;;;98.20;12.57;;;16.20;50.00;;;;;;4165198;28;20034;-52
2021/04/02 11:34:00;;;;;;;79.20;9.67;;;16.30;50.00;;;;;;4182318;28;20377;-53
2021/04/02 11:36:02;;;;;;;69.37;9.77;;;16.30;51.00;;;;;;4157498;28;20118;-53
2021/04/02 11:38:03;;;;;;;85.43;9.20;;;16.30;51.10;;;;;;4162091;28;20557;-53
2021/04/02 11:40:06;;;;;;;82.13;10.77;;;16.40;50.70;;;;;;4161988;28;20022;-53
2021/04/02 11:42:07;;;;;;;70.30;9.87;;;16.40;51.00;;;;;;4162175;28;20026;-52
2021/04/02 11:44:08;;;;;;;76.33;9.17;;;16.50;51.10;;;;;;4172938;28;20025;-52
2021/04/02 11:46:08;;;;;;;74.63;10.13;;;16.50;51.20;;;;;;4178469;28;20381;-53
2021/04/02 11:48:09;;;;;;;75.90;9.23;;;16.50;51.40;;;;;;4178314;28;20359;-52
2021/04/02 11:50:11;;;;;;;80.47;10.63;;;16.60;51.60;;;;;;4188740;28;20378;-53
2021/04/02 11:52:12;;;;;;;71.67;11.00;;;16.60;51.50;;;;;;4161837;28;20056;-54
2021/04/02 11:54:12;;;;;;;80.47;9.90;;;16.70;51.80;;;;;;4161639;28;20026;-53
2021/04/02 11:56:13;;;;;;;48.53;7.77;;;16.70;51.60;;;;;;4161612;28;20390;-52
2021/04/02 11:58:15;;;;;;;62.57;8.10;;;16.70;50.90;;;;;;4161738;28;20041;-53
2021/04/02 12:00:17;;;;;;;65.33;8.17;;;16.70;51.30;;;;;;4176993;28;20431;-53
2021/04/02 12:02:18;;;;;;;68.57;9.50;;;16.70;51.50;;;;;;4143226;28;20026;-52
2021/04/02 12:04:19;;;;;;;76.27;8.70;;;16.80;51.80;;;;;;4160370;28;20033;-52
2021/04/02 12:06:20;;;;;;;72.83;8.97;;;16.80;51.80;;;;;;4161479;28;20022;-52
2021/04/02 12:08:21;;;;;;;50.33;6.77;;;16.90;51.80;;;;;;4169468;28;20026;-52
2021/04/02 12:10:22;;;;;;;57.23;7.60;;;16.90;52.40;;;;;;4150712;28;20449;-53
2021/04/02 12:12:23;;;;;;;52.40;7.33;;;16.90;51.80;;;;;;4150673;28;20025;-52
2021/04/02 12:14:25;;;;;;;46.20;7.83;;;17.00;51.90;;;;;;4149208;28;20041;-52
2021/04/02 12:16:26;;;;;;;57.67;8.53;;;17.00;52.00;;;;;;4150448;28;20044;-52
2021/04/02 12:18:26;;;;;;;60.23;8.30;;;17.00;52.00;;;;;;4165803;28;20509;-52
2021/04/02 12:20:27;;;;;;;48.73;6.70;;;17.10;51.90;;;;;;4150361;28;20034;-52
2021/04/02 12:22:28;;;;;;;51.27;7.70;;;17.10;51.90;;;;;;4165693;28;20045;-52
2021/04/02 12:24:29;;;;;;;55.73;7.97;;;17.10;51.80;;;;;;4150499;28;20566;-52
2021/04/02 12:26:31;;;;;;;52.80;7.03;;;17.10;51.80;;;;;;4149233;28;20022;-52
2021/04/02 12:28:32;;;;;;;48.67;7.17;;;17.20;51.80;;;;;;4150419;28;20072;-52
2021/04/02 12:30:34;;;;;;;51.00;6.80;;;17.20;51.70;;;;;;4149194;28;20076;-53
2021/04/02 12:32:35;;;;;;;50.83;7.33;;;17.20;51.80;;;;;;4150377;28;20367;-52
2021/04/02 12:34:35;;;;;;;46.57;8.03;;;17.20;51.80;;;;;;4150264;28;20037;-53
2021/04/02 12:36:36;;;;;;;40.60;6.70;;;17.30;52.00;;;;;;4150342;28;20474;-52
2021/04/02 12:38:37;;;;;;;49.63;7.53;;;17.30;52.10;;;;;;4132918;28;20510;-52
2021/04/02 12:40:38;;;;;;;39.13;6.23;;;17.30;52.00;;;;;;4150194;28;20030;-53
2021/04/02 12:42:39;;;;;;;43.33;6.20;;;17.40;52.00;;;;;;4150314;28;20501;-53
2021/04/02 12:44:40;;;;;;;54.93;6.63;;;17.40;51.90;;;;;;4150093;28;20033;-53
2021/04/02 12:46:41;;;;;;;45.07;7.43;;;17.40;52.10;;;;;;4150164;28;20046;-53
2021/04/02 12:48:42;;;;;;;42.40;5.70;;;17.40;52.30;;;;;;4132643;28;20026;-52
2021/04/02 12:50:42;;;;;;;46.00;6.47;;;17.40;52.00;;;;;;4150102;28;20060;-52
2021/04/02 12:52:43;;;;;;;44.07;5.97;;;17.40;52.10;;;;;;4149983;28;20525;-52
2021/04/02 12:54:44;;;;;;;35.90;5.57;;;17.40;52.20;;;;;;4148635;28;20506;-53
2021/04/02 12:56:45;;;;;;;34.27;6.00;;;17.50;52.20;;;;;;4149847;28;20049;-53
2021/04/02 12:58:46;;;;;;;36.50;6.33;;;17.50;52.30;;;;;;4150067;28;20104;-53
2021/04/02 13:00:47;;;;;;;34.03;6.57;;;17.50;52.40;;;;;;4149843;28;20032;-53
2021/04/02 13:02:47;;;;;;;36.70;5.80;;;17.50;52.30;;;;;;4149461;28;20026;-53
2021/04/02 13:04:48;;;;;;;41.13;5.73;;;17.60;52.40;;;;;;4149504;28;20030;-53
2021/04/02 13:06:49;;;;;;;28.30;5.50;;;17.60;52.40;;;;;;4148361;28;20030;-53
2021/04/02 13:08:49;;;;;;;28.50;5.27;;;17.60;52.30;;;;;;4181158;28;20033;-53
2021/04/02 13:10:50;;;;;;;40.67;5.70;;;17.60;52.30;;;;;;4148707;28;20116;-52
2021/04/02 13:12:52;;;;;;;32.83;5.53;;;17.70;52.30;;;;;;4149665;28;20053;-52
2021/04/02 13:14:53;;;;;;;38.23;5.63;;;17.70;52.30;;;;;;4149807;28;20061;-53
2021/04/02 13:16:53;;;;;;;35.27;5.83;;;17.70;52.30;;;;;;4149621;28;20030;-53
2021/04/02 13:18:54;;;;;;;35.07;6.03;;;17.70;52.40;;;;;;4149500;28;20501;-53
2021/04/02 13:20:55;;;;;;;31.50;5.03;;;17.80;52.20;;;;;;4148858;28;20061;-53
2021/04/02 13:22:58;;;;;;;27.83;4.50;;;17.80;52.30;;;;;;4149643;28;20387;-53
2021/04/02 13:24:59;;;;;;;37.17;5.20;;;17.80;52.30;;;;;;4164746;28;20029;-53
2021/04/02 13:27:00;;;;;;;33.27;6.10;;;17.90;52.30;;;;;;4149568;28;20120;-53
2021/04/02 13:29:00;;;;;;;40.87;5.83;;;17.90;52.50;;;;;;4147998;28;20018;-52
2021/04/02 13:31:02;;;;;;;31.30;5.30;;;17.90;52.50;;;;;;4180798;28;20029;-53
2021/04/02 13:33:03;;;;;;;29.33;4.80;;;18.00;52.50;;;;;;4148219;28;20422;-53
2021/04/02 13:35:06;;;;;;;25.67;4.13;;;18.00;52.40;;;;;;4149441;28;20022;-53
2021/04/02 13:37:06;;;;;;;32.23;4.53;;;18.10;52.20;;;;;;4148119;28;20132;-52
2021/04/02 13:39:07;;;;;;;33.33;4.10;;;18.20;52.20;;;;;;4149423;28;20378;-53
2021/04/02 13:41:08;;;;;;;27.63;4.30;;;18.20;52.10;;;;;;4148023;28;20037;-53
2021/04/02 13:43:09;;;;;;;29.70;4.30;;;18.20;52.00;;;;;;4148137;28;20045;-53
2021/04/02 13:45:11;;;;;;;29.08;4.60;;;18.20;52.00;;;;;;4147974;28;20069;-53
2021/04/02 13:47:12;;;;;;;30.63;5.37;;;18.30;52.10;;;;;;4149355;28;20034;-52
2021/04/02 13:49:13;;;;;;;28.57;4.77;;;18.30;52.10;;;;;;4164380;28;20488;-53
2021/04/02 13:51:14;;;;;;;28.47;5.17;;;18.30;52.10;;;;;;4147965;28;20088;-53
2021/04/02 13:53:15;;;;;;;29.00;5.03;;;18.40;51.90;;;;;;4149223;28;20104;-53
2021/04/02 13:55:17;;;;;;;26.00;4.43;;;18.40;51.90;;;;;;4149296;28;20021;-52
2021/04/02 13:57:18;;;;;;;22.77;4.43;;;18.40;51.90;;;;;;4148972;28;20050;-53
2021/04/02 13:59:19;;;;;;;19.50;3.70;;;18.50;51.90;;;;;;4149187;28;20413;-52
2021/04/02 14:01:19;;;;;;;20.83;4.88;;;18.50;51.80;;;;;;4149084;28;20030;-52
2021/04/02 14:03:20;;;;;;;25.17;4.40;;;18.50;51.70;;;;;;4147734;28;20026;-53
2021/04/02 14:05:21;;;;;;;26.52;3.65;;;18.60;51.70;;;;;;4180532;28;20032;-53
2021/04/02 14:07:22;;;;;;;22.27;4.30;;;18.60;51.60;;;;;;4149024;28;20072;-52
2021/04/02 14:09:23;;;;;;;15.52;3.08;;;18.60;51.70;;;;;;4148987;28;20026;-53
2021/04/02 14:11:24;;;;;;;24.20;4.32;;;18.70;51.70;;;;;;4148988;28;20048;-53
2021/04/02 14:13:24;;;;;;;23.40;4.43;;;18.60;51.60;;;;;;4149019;28;20022;-53
2021/04/02 14:15:27;;;;;;;24.20;4.67;;;18.70;51.70;;;;;;4147724;28;20061;-53
2021/04/02 14:17:28;;;;;;;28.10;4.30;;;18.70;51.50;;;;;;4147644;28;20046;-53
2021/04/02 14:19:29;;;;;;;21.20;3.03;;;18.80;51.50;;;;;;4148812;28;20026;-53
2021/04/02 14:21:29;;;;;;;17.15;3.17;;;18.80;51.50;;;;;;4148775;28;20053;-53
2021/04/02 14:23:30;;;;;;;20.50;3.00;;;18.80;51.40;;;;;;4148851;28;20030;-52
2021/04/02 14:25:31;;;;;;;20.27;4.70;;;18.80;51.30;;;;;;4148558;28;20030;-53
2021/04/02 14:27:32;;;;;;;20.25;3.28;;;18.90;51.20;;;;;;4147386;28;20033;-53
2021/04/02 14:29:33;;;;;;;18.67;3.72;;;18.80;51.00;;;;;;4148579;28;20034;-53
2021/04/02 14:31:33;;;;;;;18.80;3.88;;;18.80;51.10;;;;;;4163664;28;20087;-53
2021/04/02 14:33:34;;;;;;;20.38;3.60;;;18.90;51.30;;;;;;4148536;28;20105;-53
2021/04/02 14:35:38;;;;;;;21.40;3.67;;;18.90;51.10;;;;;;4148709;28;20029;-53
2021/04/02 14:37:39;;;;;;;15.02;2.95;;;18.90;51.10;;;;;;4163779;28;20060;-53
2021/04/02 14:39:41;;;;;;;14.40;3.00;;;18.90;51.00;;;;;;4148519;28;20141;-53
2021/04/02 14:41:41;;;;;;;15.52;3.03;;;18.90;51.00;;;;;;4148608;28;20026;-53
2021/04/02 14:43:42;;;;;;;15.98;3.47;;;18.80;51.10;;;;;;4148636;28;20018;-53
2021/04/02 14:45:43;;;;;;;23.02;3.25;;;18.80;51.20;;;;;;4148606;28;20033;-52
2021/04/02 14:47:45;;;;;;;14.23;3.73;;;18.80;51.30;;;;;;4163735;28;20033;-52
2021/04/02 14:49:46;;;;;;;16.30;3.78;;;18.80;51.40;;;;;;4163490;28;20455;-53
2021/04/02 14:51:47;;;;;;;27.52;4.13;;;18.70;51.50;;;;;;4148514;28;20040;-53
2021/04/02 14:53:48;;;;;;;16.05;2.97;;;18.60;51.60;;;;;;4163458;28;20032;-53
2021/04/02 14:55:49;;;;;;;16.63;3.28;;;18.60;51.60;;;;;;4146963;28;20498;-53
2021/04/02 14:57:50;;;;;;;24.10;3.83;;;18.60;51.80;;;;;;4148386;28;20037;-53
2021/04/02 14:59:51;;;;;;;13.07;3.13;;;18.60;51.90;;;;;;4146823;28;20355;-53
2021/04/02 15:01:51;;;;;;;17.03;2.67;;;18.50;51.90;;;;;;4179886;28;20049;-52
2021/04/02 15:03:52;;;;;;;14.32;2.55;;;18.40;52.00;;;;;;4148324;28;20438;-53
2021/04/02 15:05:53;;;;;;;15.87;2.93;;;18.40;52.20;;;;;;4146891;28;20026;-53
2021/04/02 15:07:54;;;;;;;22.37;3.33;;;18.40;52.10;;;;;;4148380;28;20015;-52
2021/04/02 15:09:55;;;;;;;16.07;3.20;;;18.30;52.30;;;;;;4148201;28;20041;-52
2021/04/02 15:11:56;;;;;;;21.13;3.83;;;18.30;52.30;;;;;;4148124;28;20022;-53
2021/04/02 15:13:57;;;;;;;13.57;2.55;;;18.30;52.50;;;;;;4147108;28;20045;-53
2021/04/02 15:15:58;;;;;;;14.30;3.20;;;18.30;52.40;;;;;;4179623;28;20084;-53
2021/04/02 15:17:58;;;;;;;11.13;2.63;;;18.20;52.40;;;;;;4179757;28;20063;-53
2021/04/02 15:19:59;;;;;;;10.83;2.73;;;18.20;52.60;;;;;;4148210;28;20030;-53
2021/04/02 15:22:00;;;;;;;13.10;3.10;;;18.20;52.80;;;;;;4146783;28;20109;-53
2021/04/02 15:24:01;;;;;;;10.13;2.40;;;18.10;52.80;;;;;;4148243;28;20026;-53
2021/04/02 15:26:02;;;;;;;13.07;2.63;;;18.10;52.90;;;;;;4163297;28;20083;-53
2021/04/02 15:28:04;;;;;;;10.43;2.73;;;18.00;52.90;;;;;;4148142;28;20034;-53
2021/04/02 15:30:07;;;;;;;13.97;2.70;;;18.00;53.10;;;;;;4163039;28;20053;-53
2021/04/02 15:32:09;;;;;;;18.73;3.40;;;18.00;53.20;;;;;;4163337;28;20040;-52
2021/04/02 15:34:09;;;;;;;12.03;3.30;;;17.90;53.40;;;;;;4146695;28;20514;-53
2021/04/02 15:36:10;;;;;;;15.40;2.60;;;17.80;53.50;;;;;;4147756;28;20047;-53
2021/04/02 15:38:11;;;;;;;14.23;2.80;;;17.80;53.60;;;;;;4147901;28;20026;-53
2021/04/02 15:40:13;;;;;;;11.07;2.50;;;17.80;53.70;;;;;;4147898;28;20026;-53
2021/04/02 15:42:17;;;;;;;13.43;2.50;;;17.80;53.80;;;;;;4146738;28;20034;-52
2021/04/02 15:44:17;;;;;;;10.83;2.13;;;17.70;53.90;;;;;;4150716;28;20509;-53
2021/04/02 15:46:18;;;;;;;11.30;2.23;;;17.70;54.00;;;;;;4166165;28;20029;-53
2021/04/02 15:48:19;;;;;;;11.30;2.27;;;17.70;54.10;;;;;;4151117;28;20489;-53
2021/04/02 15:50:25;;;;;;;12.60;2.47;;;17.70;54.00;;;;;;4151054;28;20104;-53
2021/04/02 15:52:26;;;;;;;12.40;2.47;;;17.70;54.00;;;;;;4166159;28;20517;-52
2021/04/02 15:54:27;;;;;;;10.30;2.37;;;17.60;54.20;;;;;;4149841;28;20038;-53
2021/04/02 15:56:28;;;;;;;13.23;2.47;;;17.70;54.10;;;;;;4182157;28;20497;-53
2021/04/02 15:58:29;;;;;;;10.10;3.17;;;17.60;54.20;;;;;;4149565;28;20029;-53
2021/04/02 16:00:30;;;;;;;11.23;2.90;;;17.60;54.30;;;;;;4165869;28;20025;-52
2021/04/02 16:02:31;;;;;;;9.93;2.60;;;17.50;54.20;;;;;;4150833;28;20497;-52
2021/04/02 16:04:32;;;;;;;10.77;2.30;;;17.50;54.50;;;;;;4150657;28;20029;-52
2021/04/02 16:06:34;;;;;;;7.67;1.83;;;17.50;54.40;;;;;;4150770;28;20156;-53
2021/04/02 16:08:34;;;;;;;14.80;3.07;;;17.50;54.60;;;;;;4150597;28;20033;-53
2021/04/02 16:10:36;;;;;;;7.70;1.77;;;17.40;54.70;;;;;;4151100;28;20058;-53
2021/04/02 16:12:43;;;;;;;10.30;2.00;;;17.40;54.70;;;;;;4150662;28;20018;-53
2021/04/02 16:14:43;;;;;;;8.23;2.30;;;17.40;54.90;;;;;;4150737;28;20548;-53
2021/04/02 16:16:45;;;;;;;9.80;2.40;;;17.40;54.60;;;;;;4149466;28;20045;-53
2021/04/02 16:18:45;;;;;;;7.73;1.80;;;17.40;54.90;;;;;;4149261;28;20026;-53
2021/04/02 16:20:47;;;;;;;10.00;2.43;;;17.30;55.00;;;;;;4150567;28;20110;-53
2021/04/02 16:22:49;;;;;;;7.87;2.13;;;17.40;55.70;;;;;;4165795;28;20076;-53
2021/04/02 16:24:50;;;;;;;9.20;2.13;;;17.30;55.20;;;;;;4165666;28;20084;-52
2021/04/02 16:26:51;;;;;;;11.87;2.30;;;17.30;55.70;;;;;;4150605;28;20101;-53
2021/04/02 16:28:52;;;;;;;10.33;2.23;;;17.30;55.10;;;;;;4149103;28;20030;-53
2021/04/02 16:30:53;;;;;;;9.30;2.73;;;17.30;55.20;;;;;;4182158;28;20025;-53
2021/04/02 16:32:54;;;;;;;6.57;2.20;;;17.30;55.10;;;;;;4150225;28;20121;-53
2021/04/02 16:34:55;;;;;;;9.17;2.17;;;17.30;55.00;;;;;;4150464;28;20079;-53
2021/04/02 16:36:56;;;;;;;8.80;2.20;;;17.30;55.10;;;;;;4149087;28;20151;-53
2021/04/02 16:38:57;;;;;;;10.40;2.30;;;17.30;55.00;;;;;;4165505;28;20490;-52
2021/04/02 16:40:58;;;;;;;8.57;2.00;;;17.20;55.10;;;;;;4150339;28;20030;-53
2021/04/02 16:42:59;;;;;;;6.63;2.40;;;17.20;55.10;;;;;;4150129;28;20454;-53
2021/04/02 16:45:00;;;;;;;7.97;2.10;;;17.20;54.80;;;;;;4149082;28;20033;-52
2021/04/02 16:47:05;;;;;;;6.00;1.93;;;17.20;55.20;;;;;;4181765;28;20032;-53
2021/04/02 16:49:06;;;;;;;5.10;1.63;;;17.20;55.20;;;;;;4150187;28;20029;-53
2021/04/02 16:51:07;;;;;;;11.53;2.53;;;17.20;55.10;;;;;;4150035;28;20112;-53
2021/04/02 16:53:08;;;;;;;8.67;2.07;;;17.20;54.60;;;;;;4149782;28;20026;-53
2021/04/02 16:55:09;;;;;;;8.13;2.13;;;17.20;54.70;;;;;;4150043;28;20018;-53
2021/04/02 16:57:11;;;;;;;8.67;1.90;;;17.20;55.20;;;;;;4149846;28;20068;-52
2021/04/02 16:59:12;;;;;;;7.57;1.93;;;17.20;55.00;;;;;;4148814;28;20018;-53
2021/04/02 17:01:13;;;;;;;9.37;1.80;;;17.10;55.10;;;;;;4165165;28;20029;-52
2021/04/02 17:03:14;;;;;;;9.53;2.10;;;17.10;55.30;;;;;;4149806;28;20026;-53
2021/04/02 17:05:15;;;;;;;9.90;2.37;;;17.10;54.70;;;;;;4131805;28;20388;-53
2021/04/02 17:07:16;;;;;;;14.07;3.30;;;17.10;54.30;;;;;;4149820;28;20473;-52
2021/04/02 17:09:17;;;;;;;10.70;2.70;;;17.10;51.90;;;;;;4149936;28;20021;-52
2021/04/02 17:11:18;;;;;;;5.77;2.20;;;17.00;50.80;;;;;;4155512;28;20530;-52
2021/04/02 17:13:18;;;;;;;8.00;2.40;;;16.80;46.80;;;;;;4150036;28;20056;-54
2021/04/02 17:15:20;;;;;;;5.63;2.70;;;16.50;45.50;;;;;;4155935;28;20029;-53
2021/04/02 17:17:26;;;;;;;5.30;3.10;;;16.20;45.40;;;;;;4151157;28;20129;-53
2021/04/02 17:19:28;;;;;;;8.90;2.93;;;16.00;45.80;;;;;;4151158;28;20025;-54
2021/04/02 17:21:29;;;;;;;8.30;3.10;;;15.60;45.80;;;;;;4149589;28;20415;-56
2021/04/02 17:23:29;;;;;;;6.37;2.60;;;15.40;46.10;;;;;;4149582;28;20091;-54
2021/04/02 17:25:30;;;;;;;8.77;2.50;;;15.40;46.00;;;;;;4141144;28;20034;-54
2021/04/02 17:27:32;;;;;;;8.60;2.60;;;15.30;46.40;;;;;;4149440;28;20470;-53
2021/04/02 17:29:32;;;;;;;7.00;2.97;;;15.20;45.70;;;;;;4149270;28;20053;-54
2021/04/02 17:31:33;;;;;;;7.93;3.03;;;15.10;46.10;;;;;;4149525;28;20022;-51
2021/04/02 17:33:34;;;;;;;7.07;2.27;;;15.00;46.20;;;;;;4149320;28;20053;-51
2021/04/02 17:35:35;;;;;;;9.97;3.10;;;14.80;46.30;;;;;;4148508;28;20022;-54
2021/04/02 17:37:36;;;;;;;5.50;2.53;;;14.80;46.50;;;;;;4151778;28;20048;-50
2021/04/02 17:39:37;;;;;;;6.13;2.90;;;14.80;46.50;;;;;;4164182;28;20442;-51
2021/04/02 17:41:37;;;;;;;8.10;3.17;;;14.80;46.30;;;;;;4147930;28;20125;-51
2021/04/02 17:43:38;;;;;;;11.30;3.67;;;14.80;46.50;;;;;;4148479;28;20095;-50
2021/04/02 17:45:39;;;;;;;7.40;3.17;;;14.70;46.90;;;;;;4147905;28;20022;-50
2021/04/02 17:47:40;;;;;;;5.80;3.27;;;14.60;46.80;;;;;;4149116;28;20144;-53
2021/04/02 17:49:41;;;;;;;7.43;3.80;;;14.60;46.80;;;;;;4134163;28;20033;-49
2021/04/02 17:51:42;;;;;;;6.30;3.43;;;14.50;46.90;;;;;;4149154;28;20084;-54
2021/04/02 17:53:43;;;;;;;5.00;3.50;;;14.50;46.90;;;;;;4148863;28;20101;-53
2021/04/02 17:55:44;;;;;;;8.83;4.00;;;14.50;46.80;;;;;;4148884;28;20101;-55
2021/04/02 17:57:45;;;;;;;10.67;4.07;;;14.40;46.80;;;;;;4147729;28;20050;-55
2021/04/02 17:59:46;;;;;;;8.17;4.07;;;14.40;47.00;;;;;;4149157;28;20028;-55
2021/04/02 18:01:46;;;;;;;8.87;4.00;;;14.30;47.10;;;;;;4148931;28;20030;-53
2021/04/02 18:03:47;;;;;;;9.43;4.07;;;14.30;47.20;;;;;;4148998;28;20036;-54
2021/04/02 18:05:48;;;;;;;9.57;4.40;;;14.20;47.30;;;;;;4151428;28;20037;-54
2021/04/02 18:07:49;;;;;;;6.67;4.83;;;14.10;47.50;;;;;;4148993;28;20076;-54
2021/04/02 18:09:49;;;;;;;9.10;4.20;;;14.10;47.90;;;;;;4164021;28;20025;-54
2021/04/02 18:11:50;;;;;;;8.67;4.37;;;14.10;47.80;;;;;;4155862;28;20025;-54
2021/04/02 18:13:51;;;;;;;8.20;4.33;;;14.10;48.00;;;;;;4148829;28;20438;-54
2021/04/02 18:15:52;;;;;;;10.83;4.50;;;14.10;48.10;;;;;;4148761;28;20355;-52
2021/04/02 18:17:53;;;;;;;7.53;3.90;;;14.10;48.40;;;;;;4156483;28;20034;-55
2021/04/02 18:19:53;;;;;;;8.20;3.47;;;14.10;48.90;;;;;;4163933;28;20506;-53
2021/04/02 18:21:54;;;;;;;6.30;3.37;;;14.10;49.00;;;;;;4147484;28;20462;-52
2021/04/02 18:23:56;;;;;;;7.20;3.53;;;14.10;49.00;;;;;;4163679;28;20029;-55
2021/04/02 18:25:57;;;;;;;5.20;2.47;;;14.10;49.30;;;;;;4144402;28;20499;-52
2021/04/02 18:27:58;;;;;;;7.20;3.20;;;14.00;49.20;;;;;;4155106;28;20044;-54
2021/04/02 18:30:00;;;;;;;6.80;2.83;;;14.10;49.40;;;;;;4142534;28;20112;-53
2021/04/02 18:32:01;;;;;;;9.10;2.50;;;14.40;49.10;;;;;;4148698;28;20034;-54
2021/04/02 18:34:02;;;;;;;9.40;3.20;;;14.50;48.60;;;;;;4148487;28;20056;-54
2021/04/02 18:36:04;;;;;;;6.73;2.30;;;14.60;48.40;;;;;;4151457;28;20021;-54
2021/04/02 18:38:05;;;;;;;7.27;2.47;;;14.80;49.30;;;;;;4150994;28;20045;-56
2021/04/02 18:40:08;;;;;;;6.83;2.80;;;14.90;49.30;;;;;;4147316;28;20442;-55
2021/04/02 18:42:09;;;;;;;14.23;2.80;;;15.10;49.30;;;;;;4148548;28;20105;-57
2021/04/02 18:44:10;;;;;;;6.77;2.63;;;15.20;49.30;;;;;;4163606;28;20038;-57
2021/04/02 18:46:11;;;;;;;7.73;2.03;;;15.40;49.40;;;;;;4147343;28;20105;-55
2021/04/02 18:48:12;;;;;;;8.97;2.20;;;15.50;49.50;;;;;;4163368;28;20064;-56
2021/04/02 18:50:14;;;;;;;7.87;2.30;;;15.60;49.50;;;;;;4148380;28;20068;-56
2021/04/02 18:52:15;;;;;;;9.50;2.17;;;15.60;49.60;;;;;;4148301;28;20474;-57
2021/04/02 18:54:17;;;;;;;6.60;2.67;;;15.70;49.60;;;;;;4163553;28;20542;-56
2021/04/02 18:56:19;;;;;;;5.43;2.10;;;15.80;49.70;;;;;;4148039;28;20052;-56
2021/04/02 18:58:19;;;;;;;18.60;3.07;;;15.90;49.60;;;;;;4148212;28;20030;-56
2021/04/02 19:00:21;;;;;;;5.33;2.20;;;15.90;49.60;;;;;;4148292;28;20018;-56
2021/04/02 19:02:22;;;;;;;4.70;2.00;;;16.10;49.60;;;;;;4148354;28;20449;-55
2021/04/02 19:04:22;;;;;;;5.50;2.30;;;16.10;49.60;;;;;;4163342;28;20025;-55
2021/04/02 19:06:23;;;;;;;5.13;2.57;;;16.20;49.60;;;;;;4148281;28;20057;-57
2021/04/02 19:08:24;;;;;;;4.53;2.10;;;16.20;49.50;;;;;;4148251;28;20109;-56
2021/04/02 19:10:25;;;;;;;10.20;2.30;;;16.20;49.60;;;;;;4148295;28;20022;-55
2021/04/02 19:12:26;;;;;;;7.73;2.40;;;16.30;49.50;;;;;;4148397;28;20467;-57
2021/04/02 19:14:27;;;;;;;6.83;2.17;;;16.40;49.60;;;;;;4147955;28;20022;-56
2021/04/02 19:16:28;;;;;;;11.17;3.17;;;16.40;49.40;;;;;;4148015;28;20375;-56
2021/04/02 19:18:29;;;;;;;10.50;2.80;;;16.40;48.50;;;;;;4158079;28;20037;-59
2021/04/02 19:20:30;;;;;;;8.20;2.70;;;16.10;48.10;;;;;;4159791;28;20032;-56
2021/04/02 19:22:31;;;;;;;7.00;2.50;;;16.20;49.30;;;;;;4162402;28;20484;-55
2021/04/02 19:24:32;;;;;;;11.97;2.83;;;16.30;49.50;;;;;;4162635;28;20020;-56
2021/04/02 19:26:33;;;;;;;4.20;2.40;;;16.40;49.00;;;;;;4162917;28;20085;-54
2021/04/02 19:28:33;;;;;;;5.30;2.53;;;16.40;49.00;;;;;;4163236;28;20434;-56
2021/04/02 19:30:34;;;;;;;8.43;2.53;;;16.50;49.10;;;;;;4160589;28;20031;-55
2021/04/02 19:32:36;;;;;;;16.27;3.00;;;16.50;48.90;;;;;;4163640;28;20072;-54
2021/04/02 19:34:37;;;;;;;8.13;2.40;;;16.50;49.10;;;;;;4163375;28;20041;-54
2021/04/02 19:36:38;;;;;;;5.23;1.80;;;16.60;49.70;;;;;;4162189;28;20390;-55
2021/04/02 19:38:43;;;;;;;4.20;1.90;;;16.70;49.70;;;;;;4163863;28;20026;-54
2021/04/02 19:40:44;;;;;;;11.85;2.70;;;16.70;49.60;;;;;;4164052;28;20022;-56
2021/04/02 19:42:46;;;;;;;6.67;2.27;;;16.70;49.50;;;;;;4162955;28;20064;-55
2021/04/02 19:44:47;;;;;;;7.47;2.33;;;16.80;49.80;;;;;;4162252;28;20021;-55
2021/04/02 19:46:47;;;;;;;2.83;2.00;;;16.80;49.70;;;;;;4158454;28;20037;-56
2021/04/02 19:48:48;;;;;;;7.33;2.10;;;16.80;49.80;;;;;;4149565;28;20030;-55
2021/04/02 19:50:50;;;;;;;10.50;2.10;;;16.90;49.80;;;;;;4158894;28;20022;-56
2021/04/02 19:52:51;;;;;;;5.57;2.33;;;16.90;49.80;;;;;;4162985;28;20029;-55
2021/04/02 19:54:51;;;;;;;7.73;2.10;;;16.90;49.80;;;;;;4177177;28;20039;-55
2021/04/02 19:56:52;;;;;;;2.77;2.23;;;17.00;50.00;;;;;;4159169;28;20088;-55
2021/04/02 19:58:53;;;;;;;6.10;1.87;;;17.00;50.10;;;;;;4158792;28;20486;-55
2021/04/02 20:00:54;;;;;;;6.97;1.93;;;17.00;50.10;;;;;;4158342;28;20041;-57
2021/04/02 20:02:56;;;;;;;11.47;2.53;;;17.00;50.20;;;;;;4153898;28;20034;-56
2021/04/02 20:04:56;;;;;;;4.60;1.90;;;17.10;50.30;;;;;;4152413;28;20052;-56
2021/04/02 20:06:58;;;;;;;11.07;2.67;;;17.10;50.30;;;;;;4163575;28;20026;-57
2021/04/02 20:08:59;;;;;;;4.13;2.03;;;17.10;50.40;;;;;;4155285;28;20478;-57
2021/04/02 20:11:00;;;;;;;4.90;2.43;;;17.10;50.40;;;;;;4158396;28;20029;-56
2021/04/02 20:13:01;;;;;;;7.07;2.03;;;17.20;50.50;;;;;;4150578;28;20540;-56
2021/04/02 20:15:02;;;;;;;4.70;1.87;;;17.20;50.50;;;;;;4150714;28;20088;-56
2021/04/02 20:17:03;;;;;;;6.17;2.07;;;17.20;50.60;;;;;;4138603;28;20459;-56
2021/04/02 20:19:05;;;;;;;10.10;1.87;;;17.20;50.60;;;;;;4151412;28;20105;-56
2021/04/02 20:21:06;;;;;;;4.63;2.00;;;17.30;50.70;;;;;;4165811;28;20025;-56
2021/04/02 20:23:07;;;;;;;6.33;2.70;;;17.30;50.70;;;;;;4167016;28;20027;-56
2021/04/02 20:25:09;;;;;;;16.97;3.43;;;17.30;50.90;;;;;;4166245;28;20393;-56
2021/04/02 20:27:10;;;;;;;31.23;8.53;;;17.40;50.90;;;;;;4176799;28;20032;-54
2021/04/02 20:29:12;;;;;;;106.53;22.03;;;17.40;50.90;;;;;;4163581;28;20441;-56
2021/04/02 20:31:13;;;;;;;213.83;47.23;;;17.40;51.00;;;;;;4165798;28;20029;-56
2021/04/02 20:33:14;;;;;;;312.67;73.27;;;17.50;51.30;;;;;;4173695;28;20021;-55
2021/04/02 20:35:17;;;;;;;324.73;85.27;;;17.50;51.50;;;;;;4161648;28;20017;-56
2021/04/02 20:37:17;;;;;;;344.13;89.47;;;17.50;51.80;;;;;;4150863;28;20123;-56
2021/04/02 20:39:18;;;;;;;380.20;97.90;;;17.60;52.40;;;;;;4143987;28;20032;-55
2021/04/02 20:41:19;;;;;;;381.17;103.33;;;17.60;52.70;;;;;;4149934;28;20068;-55
2021/04/02 20:43:21;;;;;;;406.73;102.97;;;17.70;53.10;;;;;;4165126;28;20029;-54
2021/04/02 20:45:22;;;;;;;417.60;107.93;;;17.70;53.60;;;;;;4150189;28;20026;-54
2021/04/02 20:47:23;;;;;;;400.67;107.03;;;17.70;54.00;;;;;;4165201;28;20223;-54
2021/04/02 20:49:24;;;;;;;423.07;105.37;;;17.70;54.30;;;;;;4150143;28;20037;-53
2021/04/02 20:51:25;;;;;;;405.37;108.00;;;17.70;54.40;;;;;;4154649;28;20013;-54
2021/04/02 20:53:25;;;;;;;401.77;109.77;;;17.70;55.10;;;;;;4162176;28;20034;-56
2021/04/02 20:55:26;;;;;;;417.47;107.57;;;17.70;54.60;;;;;;4162572;28;20022;-55
2021/04/02 20:57:27;;;;;;;392.50;106.80;;;17.70;54.70;;;;;;4177374;28;20085;-56
2021/04/02 20:59:28;;;;;;;382.87;100.33;;;17.70;54.70;;;;;;4160461;28;20484;-54
2021/04/02 21:01:30;;;;;;;397.37;103.73;;;17.70;54.70;;;;;;4155623;28;20021;-56
2021/04/02 21:03:31;;;;;;;350.07;97.57;;;17.70;54.70;;;;;;4155428;28;20021;-60
2021/04/02 21:05:32;;;;;;;374.57;99.37;;;17.70;54.70;;;;;;4161711;28;20025;-57
2021/04/02 21:07:33;;;;;;;381.47;103.27;;;17.70;54.70;;;;;;4160356;28;20513;-56
2021/04/02 21:09:33;;;;;;;347.77;93.30;;;17.60;54.60;;;;;;4172283;28;20021;-55
2021/04/02 21:11:36;;;;;;;358.70;93.57;;;17.60;54.50;;;;;;4162382;28;20017;-55
2021/04/02 21:13:37;;;;;;;335.60;90.97;;;17.60;54.60;;;;;;4161409;28;20013;-54
2021/04/02 21:15:38;;;;;;;348.37;95.67;;;17.60;54.50;;;;;;4156442;28;20501;-55
2021/04/02 21:17:39;;;;;;;342.17;93.00;;;17.60;54.60;;;;;;4158832;28;20538;-55
2021/04/02 21:19:40;;;;;;;325.53;87.07;;;17.60;54.60;;;;;;4160893;28;20067;-54